Time;durP1;ratioP1;P1;durP2;ratioP2;P2;SDS_P1;SDS_P2;PMS_P1;PMS_P2;Temp;Humidity;BMP_temperature;BMP_pressure;BME280_temperature;BME280_humidity;BME280_pressure;Samples;Min_cycle;Max_cycle;Signal;HPM_P1;HPM_P2
2023/04/10 00:01:13;;;;;;;12.55;6.88;;;;;;;8.70;63.12;100287.31;5106523;28;20031;-42
2023/04/10 00:03:38;;;;;;;12.95;7.40;;;;;;;8.75;63.05;100286.72;5106370;28;20019;-41
2023/04/10 00:06:04;;;;;;;10.75;7.25;;;;;;;8.71;62.93;100283.63;5106138;28;20058;-42
2023/04/10 00:08:30;;;;;;;12.15;8.18;;;;;;;8.79;62.75;100283.44;5106290;27;20027;-41
2023/04/10 00:10:55;;;;;;;11.07;6.95;;;;;;;8.68;63.01;100280.56;5106404;28;20031;-41
2023/04/10 00:13:22;;;;;;;10.18;6.18;;;;;;;8.54;63.28;100258.44;5106396;28;20077;-42
2023/04/10 00:15:47;;;;;;;11.45;7.47;;;;;;;8.38;63.94;100273.69;5105963;27;20020;-41
2023/04/10 00:18:13;;;;;;;12.27;8.13;;;;;;;8.05;65.53;100271.72;5106409;28;20020;-41
2023/04/10 00:20:38;;;;;;;13.05;8.02;;;;;;;7.70;67.53;100272.75;5106148;27;20601;-41
2023/04/10 00:23:04;;;;;;;12.00;7.57;;;;;;;7.67;67.92;100265.19;5106421;28;20036;-42
2023/04/10 00:25:29;;;;;;;13.70;7.47;;;;;;;7.33;69.75;100264.94;5106144;28;20432;-40
2023/04/10 00:27:54;;;;;;;12.00;7.40;;;;;;;7.73;68.07;100262.56;5106158;28;20034;-41
2023/04/10 00:30:20;;;;;;;11.70;6.95;;;;;;;7.88;66.91;100254.47;5106131;28;20047;-41
2023/04/10 00:32:46;;;;;;;11.25;6.65;;;;;;;7.65;67.13;100252.09;5106175;28;20036;-41
2023/04/10 00:35:12;;;;;;;10.30;6.18;;;;;;;7.78;67.08;100256.66;5106307;28;20035;-42
2023/04/10 00:37:37;;;;;;;10.98;6.63;;;;;;;7.81;66.71;100265.06;5106047;28;20038;-41
2023/04/10 00:40:05;;;;;;;11.73;6.72;;;;;;;7.90;65.89;100252.44;5106477;27;20020;-41
2023/04/10 00:42:30;;;;;;;10.48;6.03;;;;;;;7.74;66.54;100244.78;5109561;27;20020;-41
2023/04/10 00:44:56;;;;;;;10.00;5.95;;;;;;;7.68;66.03;100227.00;5109950;28;20028;-41
2023/04/10 00:47:21;;;;;;;10.90;6.50;;;;;;;7.73;66.59;100240.50;5109534;28;20035;-42
2023/04/10 00:49:47;;;;;;;12.30;6.63;;;;;;;7.87;66.36;100239.56;5109634;28;20031;-42
2023/04/10 00:52:12;;;;;;;11.65;6.93;;;;;;;7.76;66.23;100245.41;5109407;27;20085;-45
2023/04/10 00:54:39;;;;;;;10.68;6.57;;;;;;;7.57;67.72;100234.50;5109627;28;20114;-41
2023/04/10 00:57:04;;;;;;;9.20;6.30;;;;;;;7.98;66.08;100236.34;5109838;28;20031;-43
2023/04/10 00:59:30;;;;;;;10.27;6.25;;;;;;;8.12;65.22;100234.56;5109040;28;20473;-42
2023/04/10 01:01:56;;;;;;;9.57;5.78;;;;;;;8.00;64.49;100221.03;5109613;28;20050;-42
2023/04/10 01:04:25;;;;;;;11.48;6.35;;;;;;;7.44;67.66;100231.78;5109193;28;20028;-42
2023/04/10 01:06:58;;;;;;;10.23;6.00;;;;;;;7.66;66.50;100203.28;5109355;27;20040;-41
2023/04/10 01:09:30;;;;;;;10.82;6.43;;;;;;;7.39;67.01;100219.06;5109283;28;20065;-40
2023/04/10 01:12:17;;;;;;;11.07;6.35;;;;;;;7.38;68.62;100227.25;5109487;27;20596;-40
2023/04/10 01:14:52;;;;;;;10.50;6.38;;;;;;;6.82;72.18;100228.00;5109332;28;20110;-41
2023/04/10 01:17:26;;;;;;;12.13;7.13;;;;;;;6.82;72.60;100228.84;5109166;28;20028;-41
2023/04/10 01:20:21;;;;;;;11.93;7.80;;;;;;;6.96;72.63;100228.94;5109093;27;20027;-40
2023/04/10 01:23:11;;;;;;;12.98;7.03;;;;;;;6.43;75.11;100227.41;5108702;28;20032;-42
2023/04/10 01:25:42;;;;;;;11.20;6.53;;;;;;;6.96;72.21;100219.16;5109118;28;20038;-41
2023/04/10 01:28:26;;;;;;;19.02;7.57;;;;;;;7.16;71.89;100219.31;5108924;28;20114;-41
2023/04/10 01:30:56;;;;;;;12.00;6.95;;;;;;;6.57;74.16;100230.22;5108947;28;20039;-41
2023/04/10 01:33:28;;;;;;;10.77;6.55;;;;;;;6.76;73.73;100224.31;5108939;28;20030;-40
2023/04/10 01:35:56;;;;;;;11.63;6.88;;;;;;;7.13;70.87;100205.63;5109088;28;20116;-40
2023/04/10 01:38:25;;;;;;;14.65;7.25;;;;;;;7.18;70.91;100216.47;5108759;28;20026;-41
2023/04/10 01:40:53;;;;;;;12.23;7.22;;;;;;;7.34;71.04;100220.69;5108917;27;20499;-41
2023/04/10 01:43:21;;;;;;;15.13;7.57;;;;;;;7.33;69.97;100213.72;5108648;28;20028;-41
2023/04/10 01:45:50;;;;;;;16.02;7.68;;;;;;;7.22;71.20;100223.84;5108594;28;20032;-40
2023/04/10 01:48:17;;;;;;;13.75;8.85;;;;;;;7.38;69.86;100227.25;5108662;28;20027;-40
2023/04/10 01:50:44;;;;;;;26.47;13.60;;;;;;;7.22;70.36;100226.50;5099842;28;20530;-40
2023/04/10 01:53:10;;;;;;;18.45;11.57;;;;;;;7.35;69.53;100220.47;5106357;28;20273;-43
2023/04/10 01:55:37;;;;;;;16.15;10.18;;;;;;;6.91;69.97;100200.38;5108175;28;20034;-39
2023/04/10 01:58:03;;;;;;;16.38;9.40;;;;;;;7.46;67.84;100224.44;5107914;28;20095;-40
2023/04/10 02:00:29;;;;;;;15.20;8.93;;;;;;;7.04;69.49;100195.16;5108321;28;20020;-41
2023/04/10 02:02:57;;;;;;;11.45;6.90;;;;;;;7.34;67.95;100210.88;5108039;28;20066;-42
2023/04/10 02:05:30;;;;;;;12.95;7.60;;;;;;;7.30;68.45;100206.16;5107726;28;20028;-42
2023/04/10 02:08:11;;;;;;;17.10;10.52;;;;;;;7.20;68.39;100199.34;5107785;28;20035;-40
2023/04/10 02:10:43;;;;;;;16.00;10.90;;;;;;;6.80;70.61;100209.66;5108299;28;20116;-40
2023/04/10 02:13:10;;;;;;;12.85;8.23;;;;;;;6.42;71.54;100201.94;5107677;28;20023;-42
2023/04/10 02:15:38;;;;;;;13.85;7.10;;;;;;;6.44;71.21;100204.41;5107908;28;20035;-40
2023/04/10 02:18:05;;;;;;;12.45;6.95;;;;;;;6.49;70.83;100196.72;5107993;28;20102;-42
2023/04/10 02:20:31;;;;;;;12.60;7.78;;;;;;;6.25;72.92;100211.13;5108012;28;20043;-41
2023/04/10 02:23:02;;;;;;;12.32;7.13;;;;;;;6.41;72.87;100210.06;5107669;28;20035;-40
2023/04/10 02:25:30;;;;;;;12.82;7.03;;;;;;;6.81;69.76;100216.59;5107634;28;20023;-39
2023/04/10 02:27:56;;;;;;;11.40;7.40;;;;;;;6.74;70.23;100210.41;5107554;28;20023;-41
2023/04/10 02:30:22;;;;;;;12.30;7.13;;;;;;;6.72;70.50;100207.13;5107007;28;20031;-40
2023/04/10 02:32:47;;;;;;;14.50;8.02;;;;;;;6.33;72.06;100208.34;5107542;28;20084;-40
2023/04/10 02:35:13;;;;;;;12.52;6.80;;;;;;;5.87;74.04;100203.34;5107406;28;20028;-41
2023/04/10 02:37:38;;;;;;;14.75;6.95;;;;;;;6.18;71.88;100204.94;5107138;28;20024;-40
2023/04/10 02:40:05;;;;;;;16.00;8.10;;;;;;;6.37;71.05;100201.69;5107390;28;20427;-40
2023/04/10 02:42:30;;;;;;;13.88;7.78;;;;;;;5.73;74.57;100201.53;5107376;28;20027;-40
2023/04/10 02:44:56;;;;;;;15.18;8.85;;;;;;;5.42;77.88;100197.25;5107489;28;20020;-41
2023/04/10 02:47:22;;;;;;;13.85;8.30;;;;;;;5.49;77.90;100203.44;5107104;27;20020;-40
2023/04/10 02:49:48;;;;;;;15.40;9.05;;;;;;;5.97;74.34;100198.59;5106518;28;20704;-40
2023/04/10 02:52:13;;;;;;;13.75;8.18;;;;;;;6.20;72.68;100197.63;5106571;27;20069;-41
2023/04/10 02:54:39;;;;;;;16.13;8.93;;;;;;;5.95;74.32;100197.97;5107004;28;20028;-42
2023/04/10 02:57:04;;;;;;;14.48;8.43;;;;;;;5.28;76.80;100192.75;5102167;28;20035;-41
2023/04/10 02:59:30;;;;;;;13.52;7.63;;;;;;;4.73;81.77;100194.75;5095232;28;20112;-41
2023/04/10 03:01:55;;;;;;;15.63;8.27;;;;;;;5.09;81.33;100204.66;5105842;28;20015;-42
2023/04/10 03:04:21;;;;;;;17.08;8.05;;;;;;;5.35;77.93;100204.25;5106768;28;20027;-41
2023/04/10 03:06:46;;;;;;;14.93;8.07;;;;;;;5.30;78.78;100196.06;5107240;28;20051;-40
2023/04/10 03:09:12;;;;;;;16.83;8.15;;;;;;;4.95;81.10;100196.53;5106735;28;20028;-41
2023/04/10 03:11:37;;;;;;;15.70;8.60;;;;;;;5.06;80.60;100205.84;5106837;28;20031;-40
2023/04/10 03:14:03;;;;;;;13.90;7.95;;;;;;;5.07;80.95;100207.50;5106801;28;20024;-40
2023/04/10 03:16:29;;;;;;;16.35;7.53;;;;;;;5.11;81.48;100221.16;5107054;28;20027;-40
2023/04/10 03:18:55;;;;;;;15.57;8.38;;;;;;;5.08;81.66;100211.78;5106633;28;20027;-41
2023/04/10 03:21:21;;;;;;;13.13;7.72;;;;;;;5.46;78.25;100209.09;5106944;28;20106;-43
2023/04/10 03:23:46;;;;;;;16.00;8.93;;;;;;;5.47;79.96;100207.28;5106944;28;20127;-40
2023/04/10 03:26:12;;;;;;;20.13;12.15;;;;;;;5.39;80.73;100208.16;5106511;28;20102;-40
2023/04/10 03:28:38;;;;;;;16.13;8.57;;;;;;;4.95;82.51;100209.75;5106850;28;20737;-40
2023/04/10 03:31:04;;;;;;;14.73;8.57;;;;;;;4.81;82.67;100202.59;5106647;28;20077;-40
2023/04/10 03:33:30;;;;;;;14.93;8.10;;;;;;;4.32;87.10;100208.25;5106457;28;20419;-41
2023/04/10 03:35:56;;;;;;;16.85;8.23;;;;;;;4.20;89.74;100202.53;5106404;28;20511;-41
2023/04/10 03:38:22;;;;;;;16.08;8.52;;;;;;;3.92;90.19;100202.97;5106524;28;20502;-41
2023/04/10 03:40:47;;;;;;;22.90;12.77;;;;;;;4.05;89.44;100204.28;5106480;28;20051;-41
2023/04/10 03:43:12;;;;;;;23.15;12.40;;;;;;;4.58;85.46;100206.09;5106543;28;20024;-41
2023/04/10 03:45:38;;;;;;;27.17;16.90;;;;;;;4.91;83.27;100194.44;5106459;28;20118;-41
2023/04/10 03:48:03;;;;;;;22.83;12.50;;;;;;;5.00;83.39;100199.44;5106618;28;20030;-41
2023/04/10 03:50:29;;;;;;;19.98;9.55;;;;;;;4.82;84.10;100183.09;5106278;28;20031;-40
2023/04/10 03:52:54;;;;;;;15.68;8.00;;;;;;;5.08;83.56;100200.38;5106550;28;20019;-41
2023/04/10 03:55:20;;;;;;;15.40;8.38;;;;;;;4.86;85.90;100204.72;5106575;28;20030;-40
2023/04/10 03:57:47;;;;;;;19.85;12.25;;;;;;;4.17;89.98;100216.09;5106659;28;20020;-40
2023/04/10 04:00:14;;;;;;;20.27;13.15;;;;;;;3.82;91.36;100212.91;5106369;28;20072;-42
2023/04/10 04:02:40;;;;;;;33.05;13.35;;;;;;;3.89;91.82;100208.63;5105866;28;20036;-41
2023/04/10 04:05:06;;;;;;;23.27;13.13;;;;;;;4.32;89.84;100206.41;5106270;28;20049;-44
2023/04/10 04:07:31;;;;;;;22.45;13.48;;;;;;;4.90;86.20;100206.00;5106529;28;20420;-43
2023/04/10 04:09:56;;;;;;;20.45;12.63;;;;;;;4.38;89.74;100216.28;5106090;28;20111;-43
2023/04/10 04:12:22;;;;;;;21.50;13.75;;;;;;;3.99;91.88;100219.78;5106561;28;20034;-43
2023/04/10 04:14:47;;;;;;;27.73;17.23;;;;;;;4.09;93.43;100226.69;5106137;28;20111;-44
2023/04/10 04:17:13;;;;;;;23.90;11.43;;;;;;;4.68;91.15;100218.22;5109599;28;20024;-41
2023/04/10 04:19:38;;;;;;;24.90;12.57;;;;;;;4.98;89.90;100208.56;5110068;28;20016;-40
2023/04/10 04:22:04;;;;;;;20.02;11.13;;;;;;;5.41;87.11;100220.22;5110182;28;20085;-41
2023/04/10 04:24:29;;;;;;;19.63;10.65;;;;;;;5.55;86.33;100221.22;5110358;28;20161;-41
2023/04/10 04:26:56;;;;;;;35.75;13.00;;;;;;;5.17;89.10;100223.94;5110083;28;20028;-43
2023/04/10 04:29:21;;;;;;;20.15;11.70;;;;;;;4.89;90.79;100225.50;5109876;28;20023;-44
2023/04/10 04:31:46;;;;;;;17.50;8.20;;;;;;;4.37;92.58;100230.50;5110127;28;20054;-41
2023/04/10 04:34:12;;;;;;;14.73;8.88;;;;;;;4.57;91.80;100220.25;5110158;28;20481;-39
2023/04/10 04:36:37;;;;;;;15.13;8.02;;;;;;;5.10;88.02;100223.00;5109898;28;20031;-41
2023/04/10 04:39:03;;;;;;;15.05;8.30;;;;;;;5.39;86.17;100227.53;5110196;28;20034;-41
2023/04/10 04:41:31;;;;;;;19.27;10.43;;;;;;;5.33;87.13;100227.41;5109767;28;20513;-42
2023/04/10 04:44:00;;;;;;;15.13;8.57;;;;;;;4.95;88.56;100227.44;5109865;28;20515;-41
2023/04/10 04:46:26;;;;;;;16.48;8.27;;;;;;;5.00;89.89;100235.63;5109889;28;20031;-38
2023/04/10 04:48:51;;;;;;;13.77;8.15;;;;;;;4.90;90.98;100232.41;5109894;28;20415;-41
2023/04/10 04:51:17;;;;;;;15.88;8.35;;;;;;;5.22;90.63;100231.31;5109484;28;20431;-39
2023/04/10 04:53:42;;;;;;;16.27;8.90;;;;;;;5.45;87.91;100228.59;5109429;28;20123;-41
2023/04/10 04:56:08;;;;;;;14.32;7.47;;;;;;;5.53;87.98;100233.81;5109308;28;20432;-40
2023/04/10 04:58:33;;;;;;;14.98;8.35;;;;;;;5.56;86.47;100238.75;5104178;28;20110;-41
2023/04/10 05:00:59;;;;;;;66.07;25.70;;;;;;;5.53;88.30;100233.81;5101997;28;20059;-40
2023/04/10 05:03:27;;;;;;;12.82;7.10;;;;;;;5.37;89.43;100228.69;5089032;28;20097;-41
2023/04/10 05:05:53;;;;;;;21.23;12.53;;;;;;;5.77;87.60;100234.56;5088562;28;20075;-41
2023/04/10 05:08:18;;;;;;;116.97;86.57;;;;;;;5.77;88.84;100229.25;5088974;28;20302;-41
2023/04/10 05:10:44;;;;;;;51.35;37.97;;;;;;;6.09;85.87;100237.81;5088688;28;20039;-41
2023/04/10 05:13:09;;;;;;;16.55;8.60;;;;;;;6.26;84.20;100241.91;5088921;28;20120;-41
2023/04/10 05:15:35;;;;;;;13.45;8.38;;;;;;;6.78;82.66;100243.50;5088910;28;20055;-41
2023/04/10 05:18:00;;;;;;;21.88;10.40;;;;;;;6.49;83.04;100257.66;5088891;28;20024;-42
2023/04/10 05:20:26;;;;;;;17.40;8.77;;;;;;;6.16;85.56;100244.84;5088707;28;20417;-42
2023/04/10 05:22:51;;;;;;;16.08;8.95;;;;;;;6.37;85.52;100252.00;5088861;28;20123;-42
2023/04/10 05:25:17;;;;;;;15.27;8.77;;;;;;;7.14;83.04;100253.16;5088832;28;20035;-42
2023/04/10 05:27:43;;;;;;;19.33;10.70;;;;;;;7.25;81.89;100246.50;5121285;27;20020;-39
2023/04/10 05:30:09;;;;;;;17.20;10.40;;;;;;;7.41;80.59;100253.38;5088239;28;20032;-41
2023/04/10 05:32:34;;;;;;;13.55;7.95;;;;;;;7.26;81.15;100255.31;5088802;28;20020;-42
2023/04/10 05:35:00;;;;;;;12.90;8.13;;;;;;;7.48;79.84;100254.25;5088778;28;20888;-41
2023/04/10 05:37:25;;;;;;;15.20;8.43;;;;;;;8.08;75.61;100259.06;5103843;28;20417;-42
2023/04/10 05:39:51;;;;;;;15.45;8.13;;;;;;;8.30;75.34;100252.63;5088424;28;20500;-41
2023/04/10 05:42:16;;;;;;;17.70;8.95;;;;;;;8.50;73.76;100260.69;5088361;28;20024;-41
2023/04/10 05:44:42;;;;;;;15.77;8.88;;;;;;;8.84;69.25;100254.41;5088148;28;20107;-40
2023/04/10 05:47:08;;;;;;;14.82;9.27;;;;;;;8.82;71.43;100251.13;5088252;28;20107;-41
2023/04/10 05:49:33;;;;;;;16.42;10.13;;;;;;;9.21;69.16;100260.19;5088135;28;20575;-40
2023/04/10 05:51:59;;;;;;;15.10;8.82;;;;;;;9.25;66.95;100258.75;5087404;28;20020;-41
2023/04/10 05:54:24;;;;;;;15.20;9.68;;;;;;;8.89;67.46;100234.34;5086979;28;20465;-41
2023/04/10 05:56:49;;;;;;;15.98;9.48;;;;;;;8.92;68.60;100250.72;5087973;28;20035;-41
2023/04/10 05:59:15;;;;;;;16.23;9.13;;;;;;;9.01;69.40;100249.53;5087621;28;20020;-41
2023/04/10 06:01:40;;;;;;;14.43;8.90;;;;;;;9.17;70.17;100242.94;5087899;28;20028;-41
2023/04/10 06:04:06;;;;;;;13.50;8.32;;;;;;;9.46;66.44;100246.22;5087143;28;20036;-42
2023/04/10 06:06:32;;;;;;;14.68;8.85;;;;;;;9.61;66.97;100249.47;5087635;28;20063;-41
2023/04/10 06:08:58;;;;;;;14.18;8.88;;;;;;;9.71;65.50;100256.22;5087147;28;20032;-41
2023/04/10 06:11:23;;;;;;;12.63;8.13;;;;;;;9.72;65.14;100252.53;5087278;28;20515;-42
2023/04/10 06:13:49;;;;;;;16.00;8.80;;;;;;;9.94;64.26;100248.56;5087263;28;20039;-41
2023/04/10 06:16:15;;;;;;;17.52;8.80;;;;;;;10.03;64.40;100247.31;5087266;28;20401;-39
2023/04/10 06:18:41;;;;;;;13.05;8.20;;;;;;;10.12;64.03;100244.41;5087157;28;20032;-40
2023/04/10 06:21:06;;;;;;;15.60;8.65;;;;;;;10.22;64.40;100242.94;5102566;28;20036;-39
2023/04/10 06:23:32;;;;;;;13.10;8.38;;;;;;;10.40;63.12;100247.59;5087785;28;20814;-40
2023/04/10 06:25:57;;;;;;;13.68;9.45;;;;;;;10.46;63.59;100251.22;5087103;28;20131;-40
2023/04/10 06:28:23;;;;;;;16.15;8.52;;;;;;;10.52;64.08;100250.41;5087182;28;20027;-40
2023/04/10 06:30:48;;;;;;;12.52;8.05;;;;;;;10.37;62.92;100234.66;5087026;28;20419;-40
2023/04/10 06:33:15;;;;;;;14.05;8.48;;;;;;;10.90;61.69;100248.72;5087436;28;20028;-40
2023/04/10 06:35:40;;;;;;;14.18;8.65;;;;;;;10.95;61.41;100254.22;5103019;28;20028;-41
2023/04/10 06:38:06;;;;;;;12.98;7.95;;;;;;;11.21;60.28;100251.34;5086652;28;20031;-40
2023/04/10 06:40:33;;;;;;;13.02;7.88;;;;;;;11.25;61.49;100244.53;5087257;28;20027;-40
2023/04/10 06:42:59;;;;;;;17.05;10.30;;;;;;;11.41;62.08;100245.81;5087081;28;20024;-40
2023/04/10 06:45:24;;;;;;;16.73;9.02;;;;;;;11.49;61.70;100242.06;5087792;28;20032;-40
2023/04/10 06:47:50;;;;;;;13.48;8.18;;;;;;;11.86;57.63;100255.44;5086846;28;20073;-39
2023/04/10 06:50:15;;;;;;;13.93;8.25;;;;;;;11.81;59.46;100255.28;5087062;28;20115;-40
2023/04/10 06:52:41;;;;;;;12.68;8.02;;;;;;;11.91;58.80;100255.63;5086716;28;20393;-40
2023/04/10 06:55:06;;;;;;;17.88;9.48;;;;;;;11.60;59.28;100235.16;5087206;28;20979;-39
2023/04/10 06:57:32;;;;;;;16.27;8.48;;;;;;;11.94;57.80;100257.03;5086708;28;20051;-41
2023/04/10 06:59:57;;;;;;;14.20;8.60;;;;;;;12.00;57.91;100261.50;5090198;28;20080;-41
2023/04/10 07:02:23;;;;;;;13.57;8.45;;;;;;;12.23;57.93;100261.59;5106337;28;20024;-41
2023/04/10 07:04:49;;;;;;;15.45;9.52;;;;;;;12.43;56.53;100269.38;5105981;28;20027;-40
2023/04/10 07:07:15;;;;;;;11.50;7.78;;;;;;;12.10;56.94;100256.44;5106111;28;20043;-40
2023/04/10 07:09:40;;;;;;;13.68;8.32;;;;;;;12.33;56.19;100257.59;5106453;28;20055;-39
2023/04/10 07:12:06;;;;;;;13.55;8.15;;;;;;;12.65;56.50;100258.19;5106239;28;20438;-39
2023/04/10 07:14:35;;;;;;;15.00;8.52;;;;;;;12.65;57.29;100260.88;5106045;27;20562;-39
2023/04/10 07:17:01;;;;;;;12.45;8.02;;;;;;;12.63;55.71;100262.97;5106402;28;20020;-39
2023/04/10 07:19:27;;;;;;;13.00;7.38;;;;;;;12.59;54.39;100254.56;5106351;28;20423;-42
2023/04/10 07:21:52;;;;;;;13.32;7.38;;;;;;;12.75;52.66;100258.47;5106602;28;20024;-39
2023/04/10 07:24:18;;;;;;;10.70;6.72;;;;;;;13.20;50.13;100259.84;5106275;27;20182;-40
2023/04/10 07:26:44;;;;;;;10.85;7.00;;;;;;;13.18;50.94;100257.38;5106155;28;20023;-40
2023/04/10 07:29:09;;;;;;;11.25;6.72;;;;;;;13.39;48.79;100264.06;5106724;27;20077;-40
2023/04/10 07:31:35;;;;;;;12.52;7.50;;;;;;;13.20;51.95;100252.59;5106237;28;20460;-39
2023/04/10 07:34:01;;;;;;;10.35;6.57;;;;;;;13.60;51.56;100253.81;5106638;28;20559;-39
2023/04/10 07:36:27;;;;;;;9.45;5.50;;;;;;;13.54;49.69;100254.75;5106224;28;20016;-40
2023/04/10 07:38:53;;;;;;;9.55;5.93;;;;;;;13.56;49.27;100253.44;5104941;28;20031;-39
2023/04/10 07:41:19;;;;;;;8.85;5.30;;;;;;;13.27;48.50;100239.09;5105852;28;20145;-40
2023/04/10 07:43:46;;;;;;;8.68;5.70;;;;;;;13.37;48.23;100243.91;5106020;28;20695;-41
2023/04/10 07:46:12;;;;;;;10.93;6.10;;;;;;;13.46;47.74;100250.53;5106566;28;20031;-40
2023/04/10 07:48:37;;;;;;;10.50;5.75;;;;;;;13.36;49.78;100244.94;5106206;28;20020;-38
2023/04/10 07:51:03;;;;;;;8.40;5.30;;;;;;;13.42;50.51;100257.41;5107956;28;20039;-40
2023/04/10 07:53:28;;;;;;;8.85;5.03;;;;;;;13.44;48.31;100233.88;5110282;27;20050;-41
2023/04/10 07:55:53;;;;;;;8.13;4.95;;;;;;;13.41;48.50;100237.03;5110553;28;20023;-39
2023/04/10 07:58:20;;;;;;;10.13;5.88;;;;;;;13.54;49.63;100239.47;5110292;27;20043;-38
2023/04/10 08:00:46;;;;;;;9.18;5.07;;;;;;;13.19;49.67;100248.28;5107686;27;20829;-39
2023/04/10 08:03:14;;;;;;;7.65;4.93;;;;;;;13.10;49.52;100241.66;5109646;27;20199;-39
2023/04/10 08:05:40;;;;;;;;;;;;;;;12.98;49.80;100244.31;5110480;28;20024;-40
2023/04/10 08:08:05;;;;;;;7.65;4.68;;;;;;;12.86;49.82;100241.59;5110570;27;19919;-40
2023/04/10 08:10:30;;;;;;;8.60;4.82;;;;;;;13.09;51.80;100240.00;5110214;27;20035;-40
2023/04/10 08:12:56;;;;;;;7.57;4.60;;;;;;;12.98;49.35;100238.16;5110348;27;20088;-40
2023/04/10 08:15:21;;;;;;;8.80;4.15;;;;;;;12.72;50.07;100225.97;5109964;27;20016;-39
2023/04/10 08:17:47;;;;;;;8.73;4.35;;;;;;;12.89;48.92;100242.19;5110310;27;20533;-39
2023/04/10 08:20:12;;;;;;;7.50;4.53;;;;;;;12.94;49.85;100221.72;5110398;28;20058;-40
2023/04/10 08:22:38;;;;;;;7.60;4.45;;;;;;;13.12;50.88;100231.53;5110252;28;20028;-39
2023/04/10 08:25:04;;;;;;;9.02;5.00;;;;;;;13.14;51.53;100229.44;5110256;28;20065;-39
2023/04/10 08:27:29;;;;;;;7.72;4.68;;;;;;;13.11;50.39;100234.44;5109946;28;20028;-39
2023/04/10 08:29:55;;;;;;;8.75;5.15;;;;;;;12.95;50.96;100235.91;5109940;28;20028;-40
2023/04/10 08:32:21;;;;;;;10.02;5.00;;;;;;;12.89;51.69;100226.13;5110089;28;20080;-40
2023/04/10 08:34:46;;;;;;;15.23;8.35;;;;;;;13.02;50.43;100215.22;5110300;27;20019;-39
2023/04/10 08:37:14;;;;;;;7.68;4.10;;;;;;;13.12;49.23;100241.41;5109658;28;20072;-40
2023/04/10 08:39:40;;;;;;;7.95;4.57;;;;;;;12.83;49.80;100244.75;5109586;28;20035;-39
2023/04/10 08:42:06;;;;;;;7.38;4.32;;;;;;;12.71;50.03;100237.72;5109708;28;20755;-39
2023/04/10 08:44:32;;;;;;;8.05;4.32;;;;;;;12.94;50.96;100228.94;5109745;28;20085;-38
2023/04/10 08:46:59;;;;;;;8.50;5.10;;;;;;;13.10;50.31;100228.28;5109484;28;20032;-40
2023/04/10 08:49:47;;;;;;;7.38;4.35;;;;;;;13.31;51.41;100228.78;5109406;28;20472;-40
2023/04/10 08:52:21;;;;;;;7.00;3.90;;;;;;;12.96;49.84;100222.31;5109498;27;20019;-41
2023/04/10 08:54:50;;;;;;;7.20;3.85;;;;;;;13.04;49.02;100210.44;5109494;27;20028;-40
2023/04/10 08:57:18;;;;;;;6.57;3.70;;;;;;;13.07;48.98;100213.47;5109421;28;20467;-40
2023/04/10 08:59:44;;;;;;;7.93;5.18;;;;;;;13.23;51.13;100222.66;5110176;28;20035;-40
2023/04/10 09:02:09;;;;;;;8.18;4.63;;;;;;;13.09;50.72;100221.25;5108842;28;20028;-40
2023/04/10 09:04:35;;;;;;;8.52;4.55;;;;;;;12.91;51.42;100213.31;5109291;28;20027;-38
2023/04/10 09:07:00;;;;;;;6.75;3.83;;;;;;;12.46;52.31;100217.28;5109066;27;20162;-40
2023/04/10 09:09:27;;;;;;;8.80;4.10;;;;;;;12.34;51.15;100216.44;5109306;28;20031;-40
2023/04/10 09:11:54;;;;;;;8.05;4.50;;;;;;;12.39;51.92;100214.72;5109415;28;20016;-40
2023/04/10 09:14:28;;;;;;;23.40;18.05;;;;;;;12.57;53.24;100208.50;5109005;27;20031;-40
2023/04/10 09:17:10;;;;;;;29.60;21.60;;;;;;;12.72;52.31;100218.75;5109617;28;20030;-40
2023/04/10 09:19:35;;;;;;;8.02;4.63;;;;;;;12.38;52.26;100215.78;5109177;28;20028;-41
2023/04/10 09:22:01;;;;;;;9.20;4.57;;;;;;;12.17;53.96;100216.25;5108996;27;20060;-40
2023/04/10 09:24:26;;;;;;;7.15;4.28;;;;;;;12.29;54.31;100206.41;5109129;28;20020;-39
2023/04/10 09:26:52;;;;;;;7.75;4.13;;;;;;;12.10;54.36;100207.50;5108978;28;20083;-40
2023/04/10 09:29:18;;;;;;;7.40;4.10;;;;;;;11.73;54.42;100194.13;5108862;28;20079;-40
2023/04/10 09:31:44;;;;;;;14.48;7.03;;;;;;;11.92;55.51;100189.63;5108984;28;20521;-40
2023/04/10 09:34:16;;;;;;;7.90;4.43;;;;;;;11.99;54.92;100214.41;5108646;28;20052;-39
2023/04/10 09:37:02;;;;;;;7.68;4.30;;;;;;;11.91;55.53;100204.88;5108785;28;20027;-40
2023/04/10 09:39:35;;;;;;;9.27;4.97;;;;;;;11.69;55.96;100208.97;5108425;27;20031;-40
2023/04/10 09:42:01;;;;;;;8.25;4.53;;;;;;;11.94;55.24;100208.94;5108736;27;20020;-40
2023/04/10 09:44:32;;;;;;;9.50;5.43;;;;;;;11.86;57.46;100184.09;5108586;28;20027;-40
2023/04/10 09:47:13;;;;;;;8.48;4.53;;;;;;;11.74;57.74;100204.59;5108741;27;20104;-40
2023/04/10 09:49:51;;;;;;;8.15;5.40;;;;;;;11.66;59.71;100202.22;5108567;28;20152;-40
2023/04/10 09:52:25;;;;;;;8.40;4.30;;;;;;;11.67;60.95;100198.53;5108522;28;20412;-39
2023/04/10 09:54:51;;;;;;;8.80;4.65;;;;;;;11.71;60.36;100198.88;5108249;28;20040;-41
2023/04/10 09:57:18;;;;;;;9.23;4.93;;;;;;;11.80;60.52;100197.56;5108282;27;20024;-40
2023/04/10 09:59:55;;;;;;;8.07;4.47;;;;;;;11.98;59.97;100194.09;5108646;27;20030;-40
2023/04/10 10:02:23;;;;;;;8.90;5.13;;;;;;;12.02;59.50;100193.41;5096437;27;20039;-42
2023/04/10 10:04:49;;;;;;;6.25;3.65;;;;;;;11.93;58.38;100199.28;5108185;28;20496;-40
2023/04/10 10:07:16;;;;;;;6.85;3.92;;;;;;;12.08;59.44;100196.22;5107792;27;20058;-38
2023/04/10 10:09:45;;;;;;;7.75;4.30;;;;;;;12.02;60.04;100180.03;5107803;27;20031;-40
2023/04/10 10:12:14;;;;;;;7.28;4.35;;;;;;;12.65;58.04;100189.44;5108173;28;20103;-40
2023/04/10 10:15:21;;;;;;;14.57;9.05;;;;;;;12.68;57.55;100200.72;5107220;28;20176;-39
2023/04/10 10:17:59;;;;;;;9.20;5.55;;;;;;;12.70;56.73;100188.75;5095225;28;20040;-40
2023/04/10 10:20:25;;;;;;;9.30;4.40;;;;;;;12.70;57.66;100188.75;5108046;27;20027;-39
2023/04/10 10:22:52;;;;;;;8.23;4.30;;;;;;;12.67;58.28;100189.22;5107913;28;20523;-39
2023/04/10 10:25:19;;;;;;;7.22;4.22;;;;;;;12.56;60.26;100195.34;5107766;27;20034;-42
2023/04/10 10:27:48;;;;;;;9.68;5.15;;;;;;;12.44;61.18;100182.75;5107962;28;20495;-39
2023/04/10 10:30:17;;;;;;;7.95;4.28;;;;;;;12.40;58.09;100188.78;5107449;27;20038;-40
2023/04/10 10:32:46;;;;;;;10.40;7.57;;;;;;;12.36;59.08;100174.22;5107848;28;20028;-39
2023/04/10 10:35:12;;;;;;;7.07;4.00;;;;;;;12.34;58.21;100184.34;5107411;28;20023;-41
2023/04/10 10:37:38;;;;;;;8.40;4.45;;;;;;;12.36;60.29;100180.41;5107566;27;20024;-40
2023/04/10 10:40:22;;;;;;;9.57;5.68;;;;;;;12.74;59.24;100181.88;5107465;27;20028;-40
2023/04/10 10:43:15;;;;;;;8.60;5.22;;;;;;;12.41;59.46;100179.72;5107393;28;20028;-40
2023/04/10 10:45:50;;;;;;;8.52;4.80;;;;;;;12.44;60.20;100182.75;5107449;28;20134;-40
2023/04/10 10:48:15;;;;;;;9.82;5.72;;;;;;;12.54;60.93;100170.69;5107106;28;20538;-40
2023/04/10 10:50:59;;;;;;;11.02;6.40;;;;;;;12.37;62.77;100176.69;5107409;28;20036;-40
2023/04/10 10:53:39;;;;;;;14.25;8.45;;;;;;;12.40;64.34;100180.75;5106865;27;20484;-40
2023/04/10 10:56:19;;;;;;;13.07;6.78;;;;;;;12.11;66.04;100177.06;5117198;27;20034;-40
2023/04/10 10:58:46;;;;;;;13.60;7.63;;;;;;;11.96;68.18;100154.22;5127913;27;20049;-40
2023/04/10 11:01:11;;;;;;;11.07;6.38;;;;;;;12.20;67.36;100170.34;5127437;27;20062;-40
2023/04/10 11:03:37;;;;;;;10.80;5.38;;;;;;;11.93;68.93;100164.53;5127330;27;20050;-41
2023/04/10 11:06:06;;;;;;;11.57;7.55;;;;;;;12.15;69.63;100156.84;5127344;27;20053;-42
2023/04/10 11:08:34;;;;;;;11.82;8.45;;;;;;;12.28;69.76;100156.66;5127355;27;20514;-40
2023/04/10 11:11:02;;;;;;;10.55;6.65;;;;;;;12.40;69.30;100159.34;5127316;27;20068;-43
2023/04/10 11:13:29;;;;;;;10.30;5.93;;;;;;;12.05;64.38;100141.34;5127414;27;20047;-40
2023/04/10 11:15:56;;;;;;;10.05;6.65;;;;;;;12.05;68.45;100152.03;5127134;27;20023;-40
2023/04/10 11:18:46;;;;;;;11.80;7.07;;;;;;;12.17;67.55;100154.75;5127394;27;20030;-40
2023/04/10 11:21:13;;;;;;;10.73;6.75;;;;;;;11.87;66.64;100152.88;5127136;27;20073;-40
2023/04/10 11:23:51;;;;;;;10.75;6.65;;;;;;;12.04;67.86;100156.56;5127337;27;20538;-40